Varde, Denmark
Current Conditions -  °F | °C
As of 1:50 AM on Tuesday 23 Dec 2014 (Local Time) from EKEB Reporting Station
Broken Clouds Broken Clouds  
Wind Chill: 40°   Ceiling: 800
Heat Index: 46°   Visibility: 6mi
Dew Point: 45°   Wind: 15mph
Humidity: 93%   Direction: 250°WSW
Pressure: 29.62"   Gusts: NA
Location:  55.62°N, 8.48°E
Report Text: EKEB 230050Z AUTO 25013KT 9999NDV BKN008/// BKN120///BKN190/// 08/07 Q1003
Loading
Personal Weather Stations






























Interactive Weather Map New forecast layout! Learn more

10-Day Weather Forecast

Advertisements
Track Severe Weather on mobile